Time;durP1;ratioP1;P1;durP2;ratioP2;P2;SDS_P1;SDS_P2;PMS_P1;PMS_P2;Temp;Humidity;BMP_temperature;BMP_pressure;BME280_temperature;BME280_humidity;BME280_pressure;Samples;Min_cycle;Max_cycle;Signal;HPM_P1;HPM_P2
2022/10/12 00:02:41;;;;;;;30.13;20.33;;;;;;;;;;5063965;28;20686;-82
2022/10/12 00:05:46;;;;;;;30.23;20.77;;;;;;;;;;5030437;28;20509;-82
2022/10/12 00:08:52;;;;;;;32.07;20.47;;;;;;;;;;5040902;28;20173;-82
2022/10/12 00:11:57;;;;;;;24.17;19.13;;;;;;;;;;5040954;28;20647;-82
2022/10/12 00:15:00;;;;;;;29.23;19.13;;;;;;;;;;5040454;28;20188;-82
2022/10/12 00:18:05;;;;;;;35.03;21.50;;;;;;;;;;5029007;28;20705;-82
2022/10/12 00:21:13;;;;;;;29.90;19.97;;;;;;;;;;5051926;28;20184;-82
2022/10/12 00:24:17;;;;;;;28.13;20.53;;;;;;;;;;5029742;28;20221;-82
2022/10/12 00:27:22;;;;;;;26.67;18.97;;;;;;;;;;5030042;28;20176;-82
2022/10/12 00:30:26;;;;;;;29.73;21.00;;;;;;;;;;5041282;28;20184;-83
2022/10/12 00:33:30;;;;;;;24.70;20.23;;;;;;;;;;5040302;28;20696;-82
2022/10/12 00:36:35;;;;;;;26.20;19.27;;;;;;;;;;5017529;28;20176;-82
2022/10/12 00:39:39;;;;;;;32.90;21.53;;;;;;;;;;5029387;28;20597;-82
2022/10/12 00:42:43;;;;;;;28.67;20.13;;;;;;;;;;5028079;28;20200;-82
2022/10/12 00:45:47;;;;;;;26.67;20.30;;;;;;;;;;5029093;28;20183;-83
2022/10/12 00:48:56;;;;;;;27.13;21.03;;;;;;;;;;5028996;28;20190;-83
2022/10/12 00:52:05;;;;;;;30.37;19.93;;;;;;;;;;5028600;28;20188;-82
2022/10/12 00:55:12;;;;;;;30.70;20.90;;;;;;;;;;5027831;28;20209;-82
2022/10/12 00:58:17;;;;;;;27.10;21.43;;;;;;;;;;5027395;28;20213;-82
2022/10/12 01:01:21;;;;;;;36.27;22.33;;;;;;;;;;5038579;28;20185;-83
2022/10/12 01:04:26;;;;;;;32.17;21.40;;;;;;;;;;5027710;28;20236;-82
2022/10/12 01:07:30;;;;;;;31.30;20.80;;;;;;;;;;5038663;28;20185;-82
2022/10/12 01:10:35;;;;;;;30.60;20.87;;;;;;;;;;5027707;28;20188;-82
2022/10/12 01:13:39;;;;;;;25.43;19.00;;;;;;;;;;5050531;28;20223;-82
2022/10/12 01:17:01;;;;;;;30.97;20.73;;;;;;;;;;5027749;28;20198;-82
2022/10/12 01:20:34;;;;;;;31.43;21.87;;;;;;;;;;5029365;28;20218;-79
2022/10/12 01:23:58;;;;;;;29.60;21.17;;;;;;;;;;5028643;28;20217;-79
2022/10/12 01:27:22;;;;;;;28.27;19.37;;;;;;;;;;5039840;28;20191;-80
2022/10/12 01:30:35;;;;;;;29.17;21.47;;;;;;;;;;5029378;28;20177;-80
2022/10/12 01:33:47;;;;;;;30.50;20.50;;;;;;;;;;5029085;28;20225;-80
2022/10/12 01:37:10;;;;;;;25.20;17.93;;;;;;;;;;5040898;28;20640;-78
2022/10/12 01:40:25;;;;;;;27.90;18.33;;;;;;;;;;5040478;28;20220;-81
2022/10/12 01:43:44;;;;;;;27.63;19.33;;;;;;;;;;5040254;28;20221;-81
2022/10/12 01:46:49;;;;;;;25.70;19.77;;;;;;;;;;5040472;28;20189;-81
2022/10/12 01:49:53;;;;;;;28.37;18.47;;;;;;;;;;5041524;28;20564;-80
2022/10/12 01:53:12;;;;;;;32.90;18.63;;;;;;;;;;5042179;28;20216;-81
2022/10/12 01:56:29;;;;;;;27.27;18.60;;;;;;;;;;5066362;28;20200;-81
2022/10/12 01:59:48;;;;;;;25.53;19.33;;;;;;;;;;5030616;28;20220;-81
2022/10/12 02:03:19;;;;;;;25.83;18.70;;;;;;;;;;5042149;28;20217;-81
2022/10/12 02:06:31;;;;;;;30.43;21.53;;;;;;;;;;5064880;28;20639;-80
2022/10/12 02:09:36;;;;;;;28.87;21.00;;;;;;;;;;5040641;28;20188;-81
2022/10/12 02:12:42;;;;;;;28.53;21.37;;;;;;;;;;5051637;28;20193;-81
2022/10/12 02:15:48;;;;;;;33.33;22.27;;;;;;;;;;5028860;28;20180;-82
2022/10/12 02:18:55;;;;;;;29.27;20.10;;;;;;;;;;5041651;28;20216;-81
2022/10/12 02:22:01;;;;;;;29.10;19.83;;;;;;;;;;5040722;28;20188;-81
2022/10/12 02:25:09;;;;;;;33.80;22.20;;;;;;;;;;5028056;28;20184;-81
2022/10/12 02:28:17;;;;;;;32.00;22.27;;;;;;;;;;5028249;28;20181;-80
2022/10/12 02:31:37;;;;;;;29.63;20.13;;;;;;;;;;5039152;28;20177;-80
2022/10/12 02:34:51;;;;;;;27.87;21.93;;;;;;;;;;5039146;28;20228;-80
2022/10/12 02:38:03;;;;;;;28.20;21.20;;;;;;;;;;5041632;28;20185;-81
2022/10/12 02:41:13;;;;;;;39.60;24.27;;;;;;;;;;5041558;28;20188;-81
2022/10/12 02:44:23;;;;;;;28.80;20.93;;;;;;;;;;5029511;28;20227;-81
2022/10/12 02:47:31;;;;;;;33.20;23.07;;;;;;;;;;5029473;28;20181;-81
2022/10/12 02:50:36;;;;;;;32.67;23.87;;;;;;;;;;5029585;28;20177;-81
2022/10/12 02:53:40;;;;;;;30.70;21.80;;;;;;;;;;5039921;28;20599;-80
2022/10/12 02:56:46;;;;;;;29.33;21.53;;;;;;;;;;5031565;28;20661;-82
2022/10/12 02:59:50;;;;;;;29.23;21.53;;;;;;;;;;5032179;28;20218;-82
2022/10/12 03:02:54;;;;;;;33.17;23.50;;;;;;;;;;5031841;28;20223;-83
2022/10/12 03:05:58;;;;;;;40.53;23.70;;;;;;;;;;5044179;28;20187;-82
2022/10/12 03:09:04;;;;;;;30.43;23.00;;;;;;;;;;5032106;28;20188;-82
2022/10/12 03:12:08;;;;;;;28.77;21.43;;;;;;;;;;5031561;28;20643;-82
2022/10/12 03:15:13;;;;;;;33.27;22.33;;;;;;;;;;5031769;28;20219;-81
2022/10/12 03:18:17;;;;;;;32.97;23.30;;;;;;;;;;5032550;28;20216;-82
2022/10/12 03:21:22;;;;;;;33.20;23.27;;;;;;;;;;5032301;28;20173;-82
2022/10/12 03:24:26;;;;;;;30.20;21.07;;;;;;;;;;5042947;28;20234;-82
2022/10/12 03:27:31;;;;;;;33.53;22.13;;;;;;;;;;5031631;28;20192;-82
2022/10/12 03:30:35;;;;;;;30.93;22.20;;;;;;;;;;5030889;28;20202;-82
2022/10/12 03:33:39;;;;;;;27.20;21.07;;;;;;;;;;5042235;28;20240;-83
2022/10/12 03:36:43;;;;;;;32.50;23.07;;;;;;;;;;5042771;28;20177;-81
2022/10/12 03:39:47;;;;;;;28.87;21.50;;;;;;;;;;5030944;28;20207;-82
2022/10/12 03:42:52;;;;;;;33.23;22.90;;;;;;;;;;5042280;28;20176;-82
2022/10/12 03:45:56;;;;;;;31.50;22.17;;;;;;;;;;5065121;28;20200;-82
2022/10/12 03:49:00;;;;;;;32.40;22.43;;;;;;;;;;5042906;28;20180;-83
2022/10/12 03:52:04;;;;;;;31.40;24.00;;;;;;;;;;5031733;28;20558;-82
2022/10/12 03:55:09;;;;;;;39.03;23.90;;;;;;;;;;5031130;28;20219;-82
2022/10/12 03:58:13;;;;;;;31.53;22.40;;;;;;;;;;5019965;28;20187;-81
2022/10/12 04:01:17;;;;;;;36.63;23.90;;;;;;;;;;5031187;28;20185;-83
2022/10/12 04:04:22;;;;;;;35.70;24.20;;;;;;;;;;5019438;28;20216;-81
2022/10/12 04:07:26;;;;;;;32.90;23.47;;;;;;;;;;5042003;28;20181;-81
2022/10/12 04:10:30;;;;;;;35.23;23.93;;;;;;;;;;5031259;28;20196;-82
2022/10/12 04:13:34;;;;;;;31.17;23.77;;;;;;;;;;5040781;28;20212;-82
2022/10/12 04:16:38;;;;;;;35.37;24.47;;;;;;;;;;5020375;28;20189;-81
2022/10/12 04:19:43;;;;;;;33.47;23.63;;;;;;;;;;5031451;28;20204;-81
2022/10/12 04:22:47;;;;;;;29.50;22.97;;;;;;;;;;5031555;28;20177;-82
2022/10/12 04:25:51;;;;;;;34.17;21.73;;;;;;;;;;5032488;28;20185;-81
2022/10/12 04:28:55;;;;;;;36.30;24.07;;;;;;;;;;5042786;28;20193;-82
2022/10/12 04:31:59;;;;;;;35.47;23.80;;;;;;;;;;5025044;28;20193;-82
2022/10/12 04:35:03;;;;;;;37.33;24.67;;;;;;;;;;5022164;28;20181;-83
2022/10/12 04:38:08;;;;;;;34.10;22.27;;;;;;;;;;5010833;28;20177;-83
2022/10/12 04:41:12;;;;;;;30.63;22.87;;;;;;;;;;5010581;28;20219;-84
2022/10/12 04:44:16;;;;;;;32.77;22.27;;;;;;;;;;5010668;28;20221;-84
2022/10/12 04:47:20;;;;;;;31.90;23.03;;;;;;;;;;5021687;28;20181;-83
2022/10/12 04:50:24;;;;;;;36.67;23.47;;;;;;;;;;5021669;28;20196;-85
2022/10/12 04:53:28;;;;;;;35.27;23.07;;;;;;;;;;5023883;28;20228;-80
2022/10/12 04:56:32;;;;;;;44.47;26.33;;;;;;;;;;5025018;28;20193;-80
2022/10/12 04:59:36;;;;;;;33.17;23.80;;;;;;;;;;5035379;28;20209;-80
2022/10/12 05:02:40;;;;;;;35.23;23.17;;;;;;;;;;5038869;28;20177;-80
2022/10/12 05:05:45;;;;;;;33.50;23.80;;;;;;;;;;5027803;28;20187;-80
2022/10/12 05:08:49;;;;;;;35.47;25.00;;;;;;;;;;5028025;28;20248;-81
2022/10/12 05:11:54;;;;;;;37.20;24.67;;;;;;;;;;5031011;28;20189;-81
2022/10/12 05:14:57;;;;;;;38.70;24.70;;;;;;;;;;5019801;28;20565;-81
2022/10/12 05:18:02;;;;;;;41.70;25.07;;;;;;;;;;5027632;28;20187;-81
2022/10/12 05:21:06;;;;;;;38.67;24.60;;;;;;;;;;5040818;28;20706;-80
2022/10/12 05:24:10;;;;;;;36.67;24.17;;;;;;;;;;5045914;28;20553;-80
2022/10/12 05:27:14;;;;;;;32.67;22.67;;;;;;;;;;5057237;28;20191;-81
2022/10/12 05:30:18;;;;;;;33.00;23.40;;;;;;;;;;5080010;28;20176;-80
2022/10/12 05:33:23;;;;;;;36.53;22.30;;;;;;;;;;5057668;28;20219;-80
2022/10/12 05:36:27;;;;;;;38.20;23.37;;;;;;;;;;5081063;28;20215;-81
2022/10/12 05:39:31;;;;;;;40.43;23.77;;;;;;;;;;5057580;28;20195;-81
2022/10/12 05:42:35;;;;;;;33.37;23.27;;;;;;;;;;5057597;28;20204;-81
2022/10/12 05:45:39;;;;;;;35.27;22.63;;;;;;;;;;5059361;28;20180;-81
2022/10/12 05:48:44;;;;;;;36.33;24.80;;;;;;;;;;5035496;28;20172;-81
2022/10/12 05:51:48;;;;;;;37.63;23.80;;;;;;;;;;5081215;28;20211;-81
2022/10/12 05:54:52;;;;;;;36.50;24.23;;;;;;;;;;5058468;28;20247;-81
2022/10/12 05:57:56;;;;;;;35.37;25.07;;;;;;;;;;5070648;28;20195;-80
2022/10/12 06:01:08;;;;;;;34.90;24.00;;;;;;;;;;5070081;28;20199;-80
2022/10/12 06:04:12;;;;;;;60.43;34.90;;;;;;;;;;5046970;28;20218;-81
2022/10/12 06:07:17;;;;;;;35.63;23.73;;;;;;;;;;5046735;28;20172;-80
2022/10/12 06:10:21;;;;;;;35.87;26.33;;;;;;;;;;5058026;28;20172;-81
2022/10/12 06:13:25;;;;;;;39.53;23.97;;;;;;;;;;5057555;28;20222;-81
2022/10/12 06:16:29;;;;;;;43.70;25.97;;;;;;;;;;5046537;28;20193;-80
2022/10/12 06:19:33;;;;;;;35.37;24.17;;;;;;;;;;5058732;28;20189;-80
2022/10/12 06:22:37;;;;;;;34.57;22.83;;;;;;;;;;5067281;28;20541;-81
2022/10/12 06:25:41;;;;;;;33.13;22.20;;;;;;;;;;5080298;28;20180;-81
2022/10/12 06:28:45;;;;;;;30.27;22.13;;;;;;;;;;5045244;28;20187;-81
2022/10/12 06:31:50;;;;;;;33.63;23.33;;;;;;;;;;5033622;28;20179;-81
2022/10/12 06:34:54;;;;;;;30.50;21.50;;;;;;;;;;5056522;28;20229;-81
2022/10/12 06:37:59;;;;;;;32.27;23.83;;;;;;;;;;5056771;28;20176;-81
2022/10/12 06:41:03;;;;;;;36.30;22.90;;;;;;;;;;5044574;28;20227;-81
2022/10/12 06:44:07;;;;;;;39.07;24.97;;;;;;;;;;5045082;28;20226;-81
2022/10/12 06:47:11;;;;;;;35.40;24.50;;;;;;;;;;5056297;28;20184;-81
2022/10/12 06:50:15;;;;;;;28.50;22.03;;;;;;;;;;5057019;28;20170;-81
2022/10/12 06:53:20;;;;;;;28.07;21.40;;;;;;;;;;5056930;28;20211;-81
2022/10/12 06:56:25;;;;;;;32.00;22.07;;;;;;;;;;5067729;28;20187;-81
2022/10/12 06:59:29;;;;;;;35.30;23.50;;;;;;;;;;5068030;28;20179;-81
2022/10/12 07:02:33;;;;;;;29.70;21.93;;;;;;;;;;5056436;28;20188;-81
2022/10/12 07:05:38;;;;;;;34.40;21.57;;;;;;;;;;5045010;28;20189;-80
2022/10/12 07:08:42;;;;;;;29.50;20.13;;;;;;;;;;5045109;28;20176;-80
2022/10/12 07:11:47;;;;;;;29.27;19.13;;;;;;;;;;5056487;28;20203;-80
2022/10/12 07:14:53;;;;;;;35.13;21.33;;;;;;;;;;5056526;28;20227;-81
2022/10/12 07:17:57;;;;;;;42.53;22.40;;;;;;;;;;5045245;28;20199;-81
2022/10/12 07:21:02;;;;;;;31.23;20.27;;;;;;;;;;5044706;28;20234;-82
2022/10/12 07:24:06;;;;;;;32.67;21.00;;;;;;;;;;5055654;28;20223;-81
2022/10/12 07:27:11;;;;;;;35.43;19.27;;;;;;;;;;5043997;28;20184;-81
2022/10/12 07:30:15;;;;;;;29.30;19.73;;;;;;;;;;5078700;28;20184;-81
2022/10/12 07:33:19;;;;;;;30.43;19.67;;;;;;;;;;5043624;28;20223;-81
2022/10/12 07:36:23;;;;;;;41.93;20.73;;;;;;;;;;5043473;28;20194;-81
2022/10/12 07:39:28;;;;;;;41.07;20.73;;;;;;;;;;5043743;28;20183;-81
2022/10/12 07:42:32;;;;;;;36.70;20.73;;;;;;;;;;5043871;28;20168;-80
2022/10/12 07:45:36;;;;;;;39.07;19.70;;;;;;;;;;5042820;28;20738;-81
2022/10/12 07:48:40;;;;;;;35.13;20.43;;;;;;;;;;5054352;28;20192;-81
2022/10/12 07:51:46;;;;;;;35.23;20.00;;;;;;;;;;5065876;28;20189;-81
2022/10/12 07:54:50;;;;;;;38.87;20.50;;;;;;;;;;5054149;28;20585;-81
2022/10/12 07:57:54;;;;;;;44.33;20.83;;;;;;;;;;5043244;28;20646;-81
2022/10/12 08:01:06;;;;;;;38.17;21.07;;;;;;;;;;5042698;28;20215;-81
2022/10/12 08:04:10;;;;;;;41.13;22.57;;;;;;;;;;5043741;28;20215;-81
2022/10/12 08:07:14;;;;;;;45.40;21.67;;;;;;;;;;5055275;28;20184;-81
2022/10/12 08:10:19;;;;;;;36.80;19.93;;;;;;;;;;5043029;28;20670;-81
2022/10/12 08:13:23;;;;;;;40.43;20.50;;;;;;;;;;5065086;28;20232;-82
2022/10/12 08:16:27;;;;;;;36.37;20.90;;;;;;;;;;5042191;28;20545;-82
2022/10/12 08:19:31;;;;;;;41.00;21.10;;;;;;;;;;5053697;28;20176;-82
2022/10/12 08:22:35;;;;;;;40.13;19.70;;;;;;;;;;5065381;28;20199;-82
2022/10/12 08:25:39;;;;;;;34.73;19.07;;;;;;;;;;5076757;28;20187;-82
2022/10/12 08:28:43;;;;;;;30.53;19.43;;;;;;;;;;5053787;28;20189;-81
2022/10/12 08:31:49;;;;;;;36.50;18.90;;;;;;;;;;5042461;28;20192;-82
2022/10/12 08:34:53;;;;;;;32.77;19.60;;;;;;;;;;5053262;28;20234;-81
2022/10/12 08:37:58;;;;;;;29.80;17.23;;;;;;;;;;5042417;28;20184;-82
2022/10/12 08:41:39;;;;;;;28.47;17.30;;;;;;;;;;5043040;28;20259;-81
2022/10/12 08:44:57;;;;;;;21.53;15.03;;;;;;;;;;5052819;28;20231;-83
2022/10/12 08:48:10;;;;;;;31.37;18.93;;;;;;;;;;5053062;28;20192;-83
2022/10/12 08:51:24;;;;;;;22.33;16.53;;;;;;;;;;5041663;28;20536;-82
2022/10/12 08:54:34;;;;;;;25.17;16.63;;;;;;;;;;5041327;28;20240;-83
2022/10/12 08:57:40;;;;;;;25.33;16.60;;;;;;;;;;5044304;28;20640;-82
2022/10/12 09:00:49;;;;;;;24.87;17.47;;;;;;;;;;5044848;28;20274;-82
2022/10/12 09:04:14;;;;;;;25.90;17.00;;;;;;;;;;5021402;28;20224;-82
2022/10/12 09:07:25;;;;;;;24.40;16.77;;;;;;;;;;5022108;28;20545;-83
2022/10/12 09:10:44;;;;;;;25.57;16.00;;;;;;;;;;5033182;28;20188;-82
2022/10/12 09:14:05;;;;;;;23.50;17.00;;;;;;;;;;5032847;28;20298;-83
2022/10/12 09:17:24;;;;;;;25.73;16.93;;;;;;;;;;5033044;28;20190;-82
2022/10/12 09:20:34;;;;;;;25.63;15.73;;;;;;;;;;5021779;28;20181;-83
2022/10/12 09:23:41;;;;;;;26.20;17.10;;;;;;;;;;5032844;28;20228;-84
2022/10/12 09:26:49;;;;;;;22.83;16.60;;;;;;;;;;5032676;28;20546;-82
2022/10/12 09:29:57;;;;;;;27.17;18.43;;;;;;;;;;5044333;28;20665;-81
2022/10/12 09:33:22;;;;;;;22.50;16.60;;;;;;;;;;5032855;28;20281;-82
2022/10/12 09:36:32;;;;;;;26.60;17.40;;;;;;;;;;5033061;28;20209;-81
2022/10/12 09:39:38;;;;;;;27.87;19.43;;;;;;;;;;5032432;28;20203;-82
2022/10/12 09:42:44;;;;;;;29.13;18.80;;;;;;;;;;5044189;28;20214;-81
2022/10/12 09:45:49;;;;;;;27.87;19.13;;;;;;;;;;5022332;28;20184;-83
2022/10/12 09:48:58;;;;;;;31.30;19.30;;;;;;;;;;5032803;28;20184;-81
2022/10/12 09:52:03;;;;;;;31.07;22.73;;;;;;;;;;5032967;28;20178;-82
2022/10/12 09:55:27;;;;;;;28.30;21.80;;;;;;;;;;5043965;28;20216;-82
2022/10/12 09:58:39;;;;;;;28.60;21.40;;;;;;;;;;5046633;28;20182;-81
2022/10/12 10:02:16;;;;;;;33.83;21.73;;;;;;;;;;5036493;28;20200;-82
2022/10/12 10:05:31;;;;;;;32.73;23.20;;;;;;;;;;5024601;28;20193;-82
2022/10/12 10:08:43;;;;;;;28.73;20.03;;;;;;;;;;5024530;28;20219;-83
2022/10/12 10:11:47;;;;;;;31.83;21.97;;;;;;;;;;5025213;28;20181;-82
2022/10/12 10:14:55;;;;;;;31.50;20.57;;;;;;;;;;5024491;28;20227;-82
2022/10/12 10:18:03;;;;;;;34.40;19.50;;;;;;;;;;5024706;28;20185;-82
2022/10/12 10:21:10;;;;;;;28.00;18.77;;;;;;;;;;5047440;28;20224;-82
2022/10/12 10:24:29;;;;;;;29.33;19.33;;;;;;;;;;5036467;28;20216;-82
2022/10/12 10:27:38;;;;;;;31.90;19.90;;;;;;;;;;5024791;28;20188;-82
2022/10/12 10:30:55;;;;;;;29.67;19.60;;;;;;;;;;5047341;28;20177;-82
2022/10/12 10:34:28;;;;;;;28.57;18.50;;;;;;;;;;5035124;28;20716;-82
2022/10/12 10:37:33;;;;;;;27.43;19.17;;;;;;;;;;5032918;28;20188;-82
2022/10/12 10:40:37;;;;;;;29.27;19.43;;;;;;;;;;5036923;28;20192;-81
2022/10/12 10:43:47;;;;;;;29.00;18.73;;;;;;;;;;5046627;28;20579;-83
2022/10/12 10:46:58;;;;;;;31.67;20.23;;;;;;;;;;5036663;28;20180;-81
2022/10/12 10:50:07;;;;;;;31.27;18.67;;;;;;;;;;5025428;28;20173;-81
2022/10/12 10:53:26;;;;;;;35.47;18.70;;;;;;;;;;5039748;28;20209;-81
2022/10/12 10:56:31;;;;;;;26.53;18.87;;;;;;;;;;5029296;28;20185;-82
2022/10/12 10:59:44;;;;;;;29.37;20.63;;;;;;;;;;5040292;28;20177;-82
2022/10/12 11:02:53;;;;;;;25.80;17.17;;;;;;;;;;5039437;28;20224;-82
2022/10/12 11:06:33;;;;;;;26.97;19.37;;;;;;;;;;5039930;28;20177;-82
2022/10/12 11:09:46;;;;;;;28.40;18.70;;;;;;;;;;5039964;28;20181;-84
2022/10/12 11:13:05;;;;;;;31.27;21.10;;;;;;;;;;5038896;28;20260;-84
2022/10/12 11:16:15;;;;;;;33.13;22.83;;;;;;;;;;5038611;28;20190;-84
2022/10/12 11:19:32;;;;;;;27.03;20.53;;;;;;;;;;5026507;28;20201;-84
2022/10/12 11:22:46;;;;;;;25.20;19.73;;;;;;;;;;5037976;28;20209;-84
2022/10/12 11:26:08;;;;;;;30.77;22.23;;;;;;;;;;5049804;28;20706;-84
2022/10/12 11:29:16;;;;;;;32.53;21.73;;;;;;;;;;5038195;28;20736;-84
2022/10/12 11:32:44;;;;;;;35.13;22.60;;;;;;;;;;5037928;28;20204;-84
2022/10/12 11:35:50;;;;;;;34.07;23.33;;;;;;;;;;5026495;28;20184;-84
2022/10/12 11:39:04;;;;;;;35.27;22.80;;;;;;;;;;5037508;28;20651;-84
2022/10/12 11:42:14;;;;;;;39.40;23.83;;;;;;;;;;5025532;28;20217;-84
2022/10/12 11:45:25;;;;;;;38.27;23.23;;;;;;;;;;5037197;28;20217;-85
2022/10/12 11:48:43;;;;;;;32.23;21.73;;;;;;;;;;5026487;28;20548;-84
2022/10/12 11:51:51;;;;;;;28.73;21.57;;;;;;;;;;5027150;28;20563;-84
2022/10/12 11:55:42;;;;;;;31.50;21.13;;;;;;;;;;5027232;28;20239;-84
2022/10/12 11:58:52;;;;;;;25.43;19.23;;;;;;;;;;5027643;28;20192;-84
2022/10/12 12:02:16;;;;;;;27.80;18.77;;;;;;;;;;5049574;28;20208;-84
2022/10/12 12:05:20;;;;;;;30.37;20.67;;;;;;;;;;5049599;28;20244;-84
2022/10/12 12:08:37;;;;;;;33.67;20.47;;;;;;;;;;5027185;28;20188;-84
2022/10/12 12:11:41;;;;;;;31.67;20.80;;;;;;;;;;5027431;28;20188;-84
2022/10/12 12:14:51;;;;;;;30.00;20.40;;;;;;;;;;5025745;28;20219;-85
2022/10/12 12:18:14;;;;;;;28.77;19.50;;;;;;;;;;5024064;28;20189;-85
2022/10/12 12:21:18;;;;;;;29.10;18.73;;;;;;;;;;5035009;28;20188;-84
2022/10/12 12:24:22;;;;;;;37.13;22.20;;;;;;;;;;5024428;28;20213;-85
2022/10/12 12:27:40;;;;;;;31.63;20.70;;;;;;;;;;5024605;28;20181;-85
2022/10/12 12:30:58;;;;;;;31.33;20.23;;;;;;;;;;5034866;28;20181;-84
2022/10/12 12:34:12;;;;;;;27.20;20.00;;;;;;;;;;5025321;28;20223;-84
2022/10/12 12:37:21;;;;;;;28.93;20.03;;;;;;;;;;5038385;28;20177;-84
2022/10/12 12:40:26;;;;;;;37.40;20.73;;;;;;;;;;5025406;28;20181;-84
2022/10/12 12:43:30;;;;;;;26.40;19.70;;;;;;;;;;5029985;28;20240;-83
2022/10/12 12:46:53;;;;;;;29.17;21.03;;;;;;;;;;5024005;28;20207;-81
2022/10/12 12:50:00;;;;;;;30.00;21.47;;;;;;;;;;5025285;28;20540;-83
2022/10/12 12:53:13;;;;;;;33.70;21.77;;;;;;;;;;5036035;28;20710;-82
2022/10/12 12:56:20;;;;;;;31.77;20.90;;;;;;;;;;5013211;28;20549;-81
2022/10/12 13:00:00;;;;;;;49.20;31.50;;;;;;;;;;5024149;28;20204;-83
2022/10/12 13:03:14;;;;;;;38.77;26.07;;;;;;;;;;5024044;28;20236;-82
2022/10/12 13:06:55;;;;;;;40.33;25.83;;;;;;;;;;5035530;28;20192;-81
2022/10/12 13:10:11;;;;;;;40.27;26.63;;;;;;;;;;5024060;28;20296;-81
2022/10/12 13:13:35;;;;;;;39.17;26.43;;;;;;;;;;5023372;28;20224;-81
2022/10/12 13:16:54;;;;;;;45.60;28.53;;;;;;;;;;5023366;28;20189;-82
2022/10/12 13:20:06;;;;;;;46.83;29.33;;;;;;;;;;5012733;28;20184;-81
2022/10/12 13:23:16;;;;;;;38.20;27.13;;;;;;;;;;5024166;28;20235;-81
2022/10/12 13:26:24;;;;;;;43.23;28.87;;;;;;;;;;5022911;28;20216;-81
2022/10/12 13:29:44;;;;;;;41.73;28.13;;;;;;;;;;5035700;28;20192;-81
2022/10/12 13:33:05;;;;;;;36.07;24.73;;;;;;;;;;5015787;28;20185;-82
2022/10/12 13:36:28;;;;;;;31.20;21.40;;;;;;;;;;5038896;28;20188;-82
2022/10/12 13:39:38;;;;;;;27.27;20.37;;;;;;;;;;5040197;28;20552;-80
2022/10/12 13:42:42;;;;;;;29.93;20.23;;;;;;;;;;5038453;28;20738;-80
2022/10/12 13:45:47;;;;;;;30.10;21.33;;;;;;;;;;5016596;28;20208;-81
2022/10/12 13:48:52;;;;;;;31.67;21.10;;;;;;;;;;5015300;28;20683;-81
2022/10/12 13:52:11;;;;;;;35.33;21.03;;;;;;;;;;5026677;28;20192;-81
2022/10/12 13:55:16;;;;;;;32.83;21.53;;;;;;;;;;5038210;28;20276;-81
2022/10/12 13:58:28;;;;;;;28.63;20.83;;;;;;;;;;5038430;28;20651;-80
2022/10/12 14:01:34;;;;;;;30.70;20.97;;;;;;;;;;5016368;28;20192;-80
2022/10/12 14:04:42;;;;;;;34.10;21.70;;;;;;;;;;5015316;28;20710;-79
2022/10/12 14:07:50;;;;;;;31.10;20.63;;;;;;;;;;5037752;28;20192;-79
2022/10/12 14:10:56;;;;;;;29.40;20.17;;;;;;;;;;5026672;28;20184;-79
2022/10/12 14:14:01;;;;;;;28.90;20.77;;;;;;;;;;5037622;28;20215;-80
2022/10/12 14:17:05;;;;;;;31.03;20.40;;;;;;;;;;5037957;28;20180;-79
2022/10/12 14:20:17;;;;;;;34.97;21.97;;;;;;;;;;5015482;28;20192;-79
2022/10/12 14:23:23;;;;;;;33.33;20.87;;;;;;;;;;5039234;28;20718;-81
2022/10/12 14:26:37;;;;;;;30.03;21.60;;;;;;;;;;5045038;28;20658;-81
2022/10/12 14:29:43;;;;;;;35.00;23.13;;;;;;;;;;5028691;28;20184;-81
2022/10/12 14:32:48;;;;;;;33.77;22.33;;;;;;;;;;5016023;28;20176;-81
2022/10/12 14:36:11;;;;;;;31.87;21.53;;;;;;;;;;5039153;28;20655;-80
2022/10/12 14:39:18;;;;;;;36.27;25.20;;;;;;;;;;5038761;28;20204;-80
2022/10/12 14:42:27;;;;;;;34.27;23.60;;;;;;;;;;5026905;28;20192;-80
2022/10/12 14:45:31;;;;;;;34.23;23.90;;;;;;;;;;5039327;28;20184;-81
2022/10/12 14:48:36;;;;;;;33.13;23.13;;;;;;;;;;5016527;28;20556;-81
2022/10/12 14:51:40;;;;;;;38.80;25.63;;;;;;;;;;5038149;28;20204;-81
2022/10/12 14:54:44;;;;;;;37.10;25.73;;;;;;;;;;5036908;28;20232;-82
2022/10/12 14:57:49;;;;;;;35.07;24.40;;;;;;;;;;5040246;28;20188;-81
2022/10/12 15:00:53;;;;;;;34.53;24.17;;;;;;;;;;5040860;28;20694;-80
2022/10/12 15:03:57;;;;;;;36.67;24.40;;;;;;;;;;5014888;28;20722;-80
2022/10/12 15:07:11;;;;;;;34.93;23.80;;;;;;;;;;5015593;28;20180;-80
2022/10/12 15:10:17;;;;;;;34.20;24.23;;;;;;;;;;5037406;28;20184;-80
2022/10/12 15:13:21;;;;;;;35.70;25.77;;;;;;;;;;5026608;28;20715;-80
2022/10/12 15:16:27;;;;;;;34.13;24.30;;;;;;;;;;5038356;28;20647;-80
2022/10/12 15:19:31;;;;;;;38.17;24.23;;;;;;;;;;5038409;28;20184;-79
2022/10/12 15:22:35;;;;;;;36.97;25.17;;;;;;;;;;5037264;28;20726;-80
2022/10/12 15:25:54;;;;;;;41.80;28.43;;;;;;;;;;5026169;28;20215;-81
2022/10/12 15:28:59;;;;;;;39.10;26.67;;;;;;;;;;5027442;28;20195;-80
2022/10/12 15:32:04;;;;;;;41.77;24.87;;;;;;;;;;5014614;28;20222;-80
2022/10/12 15:35:26;;;;;;;38.40;25.57;;;;;;;;;;5038216;28;20196;-78
2022/10/12 15:38:31;;;;;;;37.17;24.60;;;;;;;;;;5036678;28;20212;-80
2022/10/12 15:41:36;;;;;;;39.30;25.70;;;;;;;;;;5040053;28;20184;-80
2022/10/12 15:44:40;;;;;;;42.27;26.73;;;;;;;;;;5039141;28;20231;-80
2022/10/12 15:47:46;;;;;;;36.93;25.67;;;;;;;;;;5039607;28;20203;-79
2022/10/12 15:50:50;;;;;;;37.83;27.13;;;;;;;;;;5036872;28;20204;-79
2022/10/12 15:53:54;;;;;;;34.43;23.97;;;;;;;;;;5035628;28;20224;-80
2022/10/12 15:56:59;;;;;;;38.47;26.57;;;;;;;;;;5035648;28;20188;-80
2022/10/12 16:00:03;;;;;;;39.60;26.40;;;;;;;;;;5035660;28;20662;-80
2022/10/12 16:03:18;;;;;;;53.17;27.50;;;;;;;;;;5025990;28;20243;-79
2022/10/12 16:06:23;;;;;;;43.33;26.83;;;;;;;;;;5036181;28;20362;-80
2022/10/12 16:09:27;;;;;;;38.13;26.40;;;;;;;;;;5035646;28;20184;-79
2022/10/12 16:12:31;;;;;;;37.10;25.83;;;;;;;;;;5013109;28;20207;-80
2022/10/12 16:15:35;;;;;;;41.47;25.23;;;;;;;;;;5035553;28;20556;-80
2022/10/12 16:18:39;;;;;;;44.83;25.47;;;;;;;;;;5036184;28;20184;-80
2022/10/12 16:21:43;;;;;;;44.17;26.13;;;;;;;;;;5013459;28;20192;-80
2022/10/12 16:24:48;;;;;;;42.80;25.80;;;;;;;;;;5035681;28;20232;-79
2022/10/12 16:27:54;;;;;;;39.67;25.30;;;;;;;;;;5035111;28;20223;-80
2022/10/12 16:30:57;;;;;;;42.00;25.47;;;;;;;;;;5035731;28;20208;-79
2022/10/12 16:34:02;;;;;;;39.57;25.90;;;;;;;;;;5023144;28;20235;-79
2022/10/12 16:37:06;;;;;;;38.97;25.90;;;;;;;;;;5034730;28;20188;-79
2022/10/12 16:40:11;;;;;;;41.53;24.33;;;;;;;;;;5023280;28;20687;-79
2022/10/12 16:43:15;;;;;;;41.17;24.30;;;;;;;;;;5035911;28;20231;-79
2022/10/12 16:46:19;;;;;;;34.57;23.53;;;;;;;;;;5023572;28;20204;-80
2022/10/12 16:49:23;;;;;;;38.67;25.60;;;;;;;;;;5034461;28;20691;-79
2022/10/12 16:52:27;;;;;;;40.87;26.03;;;;;;;;;;5023876;28;20200;-80
2022/10/12 16:55:31;;;;;;;38.23;26.90;;;;;;;;;;5037510;28;20560;-80
2022/10/12 16:58:35;;;;;;;41.07;27.00;;;;;;;;;;5043551;28;20187;-81
2022/10/12 17:01:40;;;;;;;38.60;25.60;;;;;;;;;;5041294;28;20191;-80
2022/10/12 17:04:45;;;;;;;37.23;24.33;;;;;;;;;;5040543;28;20251;-80
2022/10/12 17:07:49;;;;;;;33.03;23.50;;;;;;;;;;5038321;28;20195;-81
2022/10/12 17:10:54;;;;;;;38.07;25.07;;;;;;;;;;5042460;28;20203;-80
2022/10/12 17:14:02;;;;;;;39.40;26.53;;;;;;;;;;5043288;28;20218;-80
2022/10/12 17:17:06;;;;;;;37.27;25.77;;;;;;;;;;5041802;28;20195;-79
2022/10/12 17:20:10;;;;;;;35.83;25.87;;;;;;;;;;5035263;28;20192;-81
2022/10/12 17:23:14;;;;;;;42.40;26.43;;;;;;;;;;5033858;28;20282;-80
2022/10/12 17:26:18;;;;;;;45.23;28.40;;;;;;;;;;5034133;28;20569;-80
2022/10/12 17:29:25;;;;;;;40.77;27.60;;;;;;;;;;5034624;28;20279;-80
2022/10/12 17:32:29;;;;;;;39.40;26.17;;;;;;;;;;5025696;28;20180;-80
2022/10/12 17:35:39;;;;;;;44.47;28.40;;;;;;;;;;5034696;28;20541;-80
2022/10/12 17:38:43;;;;;;;41.00;26.00;;;;;;;;;;5034978;28;20188;-80
2022/10/12 17:41:48;;;;;;;40.60;26.40;;;;;;;;;;5035595;28;20188;-80
2022/10/12 17:44:52;;;;;;;37.63;25.17;;;;;;;;;;5037273;28;20216;-81
2022/10/12 17:47:56;;;;;;;38.23;25.07;;;;;;;;;;5011808;28;20264;-80
2022/10/12 17:51:08;;;;;;;38.03;24.87;;;;;;;;;;5024691;28;20200;-80
2022/10/12 17:54:14;;;;;;;41.03;25.30;;;;;;;;;;5034747;28;20223;-80
2022/10/12 17:57:19;;;;;;;41.27;26.20;;;;;;;;;;5035798;28;20192;-81
2022/10/12 18:00:23;;;;;;;41.10;27.73;;;;;;;;;;5035119;28;20378;-80
2022/10/12 18:03:27;;;;;;;47.80;27.80;;;;;;;;;;5034036;28;20224;-79
2022/10/12 18:06:33;;;;;;;45.80;28.80;;;;;;;;;;5022616;28;20203;-80
2022/10/12 18:09:37;;;;;;;48.00;28.47;;;;;;;;;;5034550;28;20208;-80
2022/10/12 18:12:41;;;;;;;49.30;29.50;;;;;;;;;;5033944;28;20208;-78
2022/10/12 18:15:45;;;;;;;47.00;28.47;;;;;;;;;;5033935;28;20200;-79